Time;durP1;ratioP1;P1;durP2;ratioP2;P2;SDS_P1;SDS_P2;PMS_P1;PMS_P2;Temp;Humidity;BMP_temperature;BMP_pressure;BME280_temperature;BME280_humidity;BME280_pressure;Samples;Min_cycle;Max_cycle;Signal;HPM_P1;HPM_P2
2023/07/07 00:01:02;;;;;;;41.95;38.55;;;15.00;99.90;;;;;;5029525;28;20554;-58
2023/07/07 00:03:28;;;;;;;43.63;39.83;;;15.00;99.90;;;;;;5030282;28;20037;-56
2023/07/07 00:05:53;;;;;;;43.92;39.95;;;15.00;1.00;;;;;;5029948;28;20037;-56
2023/07/07 00:08:19;;;;;;;44.65;41.03;;;15.10;1.00;;;;;;5029733;28;20042;-56
2023/07/07 00:10:45;;;;;;;43.63;40.13;;;15.10;1.00;;;;;;5024500;28;20105;-56
2023/07/07 00:13:12;;;;;;;43.40;40.03;;;15.00;1.00;;;;;;5027891;28;20403;-56
2023/07/07 00:15:43;;;;;;;43.53;39.80;;;15.10;1.00;;;;;;5028497;28;20092;-56
2023/07/07 00:18:09;;;;;;;42.30;38.83;;;15.00;1.00;;;;;;5028460;28;20037;-56
2023/07/07 00:20:35;;;;;;;43.17;39.67;;;14.90;1.00;;;;;;5029591;28;20495;-56
2023/07/07 00:23:00;;;;;;;45.22;41.10;;;14.90;1.00;;;;;;5029646;28;20118;-56
2023/07/07 00:25:26;;;;;;;44.70;40.92;;;14.90;1.00;;;;;;5061519;28;20133;-56
2023/07/07 00:27:51;;;;;;;45.28;41.67;;;15.00;1.00;;;;;;5029670;28;20384;-56
2023/07/07 00:30:17;;;;;;;45.88;41.95;;;15.00;1.00;;;;;;5045059;28;20491;-56
2023/07/07 00:32:42;;;;;;;43.20;39.25;;;15.10;1.00;;;;;;5029519;28;20403;-56
2023/07/07 00:35:08;;;;;;;44.65;40.88;;;15.10;1.00;;;;;;5029483;28;20057;-57
2023/07/07 00:37:35;;;;;;;41.15;37.83;;;15.10;1.60;;;;;;5029561;28;20120;-57
2023/07/07 00:40:01;;;;;;;43.38;39.67;;;15.00;1.00;;;;;;5029665;28;20205;-57
2023/07/07 00:42:26;;;;;;;41.47;37.97;;;15.00;1.00;;;;;;5029037;28;20116;-57
2023/07/07 00:45:17;;;;;;;42.50;39.20;;;15.10;1.00;;;;;;5044708;28;20166;-56
2023/07/07 00:47:53;;;;;;;44.08;40.53;;;15.10;1.00;;;;;;5027820;28;20046;-57
2023/07/07 00:50:21;;;;;;;44.20;40.40;;;15.00;1.00;;;;;;5029635;28;20045;-56
2023/07/07 00:52:47;;;;;;;42.72;39.33;;;15.00;1.00;;;;;;5029113;28;20041;-57
2023/07/07 00:55:22;;;;;;;44.53;41.03;;;15.00;1.00;;;;;;5029554;28;20045;-57
2023/07/07 00:57:48;;;;;;;42.15;38.58;;;15.00;1.00;;;;;;5029115;28;20080;-57
2023/07/07 01:00:14;;;;;;;44.85;41.15;;;15.00;1.00;;;;;;5029307;28;20084;-57
2023/07/07 01:02:42;;;;;;;42.95;39.35;;;14.90;1.00;;;;;;5029575;28;20454;-56
2023/07/07 01:05:08;;;;;;;40.58;36.92;;;14.90;1.00;;;;;;5029549;28;20468;-56
2023/07/07 01:07:42;;;;;;;42.50;39.22;;;15.00;1.00;;;;;;5029378;28;20073;-56
2023/07/07 01:10:07;;;;;;;43.90;40.08;;;14.90;1.00;;;;;;5023369;28;20045;-56
2023/07/07 01:12:34;;;;;;;42.40;38.88;;;14.80;1.00;;;;;;5043880;28;20511;-56
2023/07/07 01:15:02;;;;;;;44.25;40.60;;;14.80;1.00;;;;;;5013000;28;20038;-56
2023/07/07 01:17:56;;;;;;;43.10;39.55;;;14.90;1.00;;;;;;5013238;28;20099;-55
2023/07/07 01:20:31;;;;;;;44.17;40.05;;;14.70;1.00;;;;;;5013027;28;20034;-56
2023/07/07 01:23:17;;;;;;;45.58;41.88;;;14.70;1.00;;;;;;5012969;28;20116;-56
2023/07/07 01:26:19;;;;;;;43.05;39.15;;;14.70;58.90;;;;;;5012914;28;20049;-56
2023/07/07 01:28:53;;;;;;;44.00;40.03;;;14.70;99.90;;;;;;5032701;28;20049;-56
2023/07/07 01:31:40;;;;;;;45.55;41.80;;;14.80;99.90;;;;;;5048167;28;20142;-56
2023/07/07 01:34:13;;;;;;;43.03;39.53;;;14.60;99.90;;;;;;5032656;28;20045;-56
2023/07/07 01:36:39;;;;;;;43.47;39.88;;;14.60;1.00;;;;;;5032583;28;20080;-56
2023/07/07 01:39:05;;;;;;;45.92;42.10;;;14.80;1.00;;;;;;5032386;28;20049;-56
2023/07/07 01:41:57;;;;;;;44.17;40.58;;;14.80;1.00;;;;;;5032292;28;20045;-57
2023/07/07 01:44:26;;;;;;;43.53;39.80;;;14.70;22.60;;;;;;5031878;28;20050;-56
2023/07/07 01:47:00;;;;;;;46.85;42.75;;;14.70;92.50;;;;;;5032333;28;20057;-56
2023/07/07 01:49:32;;;;;;;44.47;40.60;;;14.70;99.90;;;;;;5032264;28;20127;-57
2023/07/07 01:52:10;;;;;;;44.10;40.17;;;14.80;99.90;;;;;;5032247;28;20041;-57
2023/07/07 01:54:43;;;;;;;45.42;41.55;;;14.80;99.90;;;;;;5031725;28;20519;-57
2023/07/07 01:57:11;;;;;;;42.00;38.53;;;14.90;99.90;;;;;;5032200;28;20068;-57
2023/07/07 01:59:38;;;;;;;45.28;41.78;;;14.70;99.90;;;;;;5032158;28;20439;-57
2023/07/07 02:02:04;;;;;;;45.92;42.13;;;14.70;99.90;;;;;;5030949;28;20033;-57
2023/07/07 02:04:30;;;;;;;45.70;41.65;;;14.60;99.90;;;;;;5031950;28;20044;-56
2023/07/07 02:06:55;;;;;;;46.30;42.38;;;14.60;99.90;;;;;;5047060;28;20045;-57
2023/07/07 02:09:21;;;;;;;43.53;39.97;;;14.60;99.90;;;;;;5031730;28;20487;-57
2023/07/07 02:11:47;;;;;;;44.97;41.20;;;14.50;99.90;;;;;;5025780;28;20134;-57
2023/07/07 02:14:12;;;;;;;47.83;43.72;;;14.40;99.90;;;;;;5031931;28;20041;-56
2023/07/07 02:16:38;;;;;;;45.83;41.85;;;14.20;99.90;;;;;;5031890;28;20044;-57
2023/07/07 02:19:04;;;;;;;44.20;40.70;;;14.20;99.90;;;;;;5047930;28;20045;-57
2023/07/07 02:21:29;;;;;;;46.80;42.78;;;14.30;1.00;;;;;;5066845;28;20044;-56
2023/07/07 02:23:55;;;;;;;48.35;44.33;;;14.10;1.00;;;;;;5050725;28;20051;-57
2023/07/07 02:26:20;;;;;;;48.70;44.25;;;14.20;1.00;;;;;;5036088;28;20041;-57
2023/07/07 02:28:46;;;;;;;43.55;39.97;;;14.20;90.50;;;;;;5031616;28;20120;-57
2023/07/07 02:31:13;;;;;;;43.88;40.35;;;14.10;99.90;;;;;;5031844;28;20043;-57
2023/07/07 02:33:39;;;;;;;44.17;40.58;;;14.20;99.90;;;;;;5031619;28;20376;-57
2023/07/07 02:36:07;;;;;;;44.85;41.35;;;14.10;99.90;;;;;;5031345;28;20041;-57
2023/07/07 02:38:34;;;;;;;44.42;40.80;;;14.00;1.00;;;;;;5031098;28;20034;-56
2023/07/07 02:41:01;;;;;;;45.13;41.42;;;14.00;99.90;;;;;;5029909;28;20091;-56
2023/07/07 02:43:28;;;;;;;44.75;41.15;;;14.10;99.90;;;;;;5031128;28;20054;-57
2023/07/07 02:45:54;;;;;;;45.53;41.83;;;14.10;1.00;;;;;;5031187;28;20132;-57
2023/07/07 02:48:21;;;;;;;46.53;42.63;;;14.20;1.00;;;;;;5042408;28;20538;-56
2023/07/07 02:51:01;;;;;;;46.38;42.47;;;14.20;32.00;;;;;;5050839;28;20045;-56
2023/07/07 02:53:30;;;;;;;44.67;40.95;;;14.10;99.90;;;;;;5051166;28;20033;-56
2023/07/07 02:55:56;;;;;;;46.95;42.70;;;14.10;99.90;;;;;;5050764;28;20047;-56
2023/07/07 02:58:22;;;;;;;48.47;44.50;;;14.10;99.90;;;;;;5049634;28;20041;-56
2023/07/07 03:00:48;;;;;;;49.10;45.20;;;14.10;99.90;;;;;;5050933;28;20059;-56
2023/07/07 03:03:14;;;;;;;49.20;45.00;;;14.30;1.00;;;;;;5050817;28;20049;-57
2023/07/07 03:05:40;;;;;;;47.70;44.00;;;14.60;1.00;;;;;;5050755;28;20471;-57
2023/07/07 03:08:06;;;;;;;48.20;44.47;;;14.30;83.40;;;;;;5050545;28;20086;-57
2023/07/07 03:10:34;;;;;;;46.47;42.75;;;14.30;99.90;;;;;;5035013;28;20037;-56
2023/07/07 03:12:59;;;;;;;46.08;42.38;;;14.40;99.90;;;;;;5030718;28;20211;-57
2023/07/07 03:15:29;;;;;;;47.05;43.33;;;14.20;99.90;;;;;;5031314;28;20120;-57
2023/07/07 03:17:55;;;;;;;46.58;42.78;;;14.00;99.90;;;;;;5030399;28;20410;-57
2023/07/07 03:20:23;;;;;;;46.92;42.88;;;14.30;99.90;;;;;;5030367;28;20049;-57
2023/07/07 03:22:48;;;;;;;47.88;44.08;;;14.00;99.90;;;;;;5030690;28;20037;-56
2023/07/07 03:25:14;;;;;;;47.35;43.45;;;14.00;99.90;;;;;;5030656;28;20038;-56
2023/07/07 03:27:40;;;;;;;48.80;44.78;;;14.00;1.00;;;;;;5030618;28;20041;-57
2023/07/07 03:30:07;;;;;;;47.70;43.70;;;13.90;1.00;;;;;;5030498;28;20172;-57
2023/07/07 03:32:32;;;;;;;49.53;45.00;;;13.90;66.50;;;;;;5030367;28;20072;-57
2023/07/07 03:34:58;;;;;;;48.42;44.00;;;14.10;99.90;;;;;;5029385;28;20045;-56
2023/07/07 03:37:23;;;;;;;49.05;44.65;;;14.10;99.90;;;;;;5030336;28;20041;-56
2023/07/07 03:39:49;;;;;;;49.63;45.35;;;13.90;99.90;;;;;;5030123;28;20045;-57
2023/07/07 03:42:15;;;;;;;48.90;44.78;;;13.80;99.90;;;;;;5030228;28;20037;-56
2023/07/07 03:44:40;;;;;;;45.58;41.70;;;13.90;99.90;;;;;;5029972;28;20128;-57
2023/07/07 03:47:06;;;;;;;45.65;41.60;;;13.90;99.90;;;;;;5029375;28;20091;-57
2023/07/07 03:49:31;;;;;;;47.75;43.72;;;13.90;99.90;;;;;;5028251;28;20030;-56
2023/07/07 03:51:57;;;;;;;48.50;44.35;;;13.90;99.90;;;;;;5027972;28;20063;-57
2023/07/07 03:54:22;;;;;;;47.97;43.90;;;13.90;99.90;;;;;;5029923;28;20080;-56
2023/07/07 03:56:48;;;;;;;48.22;43.90;;;14.00;99.90;;;;;;5030075;28;20037;-56
2023/07/07 03:59:14;;;;;;;47.22;43.30;;;14.10;99.90;;;;;;5028865;28;20045;-57
2023/07/07 04:01:39;;;;;;;47.75;43.72;;;13.90;80.20;;;;;;5030020;28;20488;-56
2023/07/07 04:04:05;;;;;;;46.65;42.75;;;14.10;2.90;;;;;;5029856;28;20034;-56
2023/07/07 04:06:31;;;;;;;46.17;42.03;;;14.10;1.00;;;;;;5028098;28;20057;-56
2023/07/07 04:08:56;;;;;;;47.15;43.10;;;14.20;1.00;;;;;;5015009;28;20046;-56
2023/07/07 04:11:22;;;;;;;47.72;43.47;;;14.20;1.00;;;;;;5015750;28;20050;-56
2023/07/07 04:13:50;;;;;;;47.88;43.67;;;14.30;99.90;;;;;;5025624;28;20052;-56
2023/07/07 04:16:24;;;;;;;50.67;46.17;;;14.20;99.90;;;;;;5029737;28;20510;-56
2023/07/07 04:18:52;;;;;;;47.88;43.88;;;14.20;99.90;;;;;;5029410;28;20050;-57
2023/07/07 04:21:20;;;;;;;49.28;44.92;;;14.40;99.90;;;;;;5029795;28;20125;-56
2023/07/07 04:23:48;;;;;;;48.05;44.10;;;14.30;99.90;;;;;;5029531;28;20077;-56
2023/07/07 04:26:14;;;;;;;47.15;42.95;;;14.30;99.90;;;;;;5028592;28;20091;-56
2023/07/07 04:28:40;;;;;;;48.90;44.83;;;14.40;99.90;;;;;;5029510;28;20045;-56
2023/07/07 04:31:08;;;;;;;48.83;44.60;;;14.40;99.90;;;;;;5029861;28;20034;-56
2023/07/07 04:33:35;;;;;;;50.42;45.97;;;14.50;99.90;;;;;;5029449;28;20037;-56
2023/07/07 04:36:03;;;;;;;47.75;43.75;;;14.60;99.90;;;;;;5029863;28;20039;-56
2023/07/07 04:38:32;;;;;;;47.88;43.95;;;14.50;1.00;;;;;;5029613;28;20050;-56
2023/07/07 04:41:15;;;;;;;49.60;45.25;;;14.40;1.00;;;;;;5029680;28;20092;-56
2023/07/07 04:43:46;;;;;;;49.95;45.50;;;14.60;80.50;;;;;;5029134;28;20104;-56
2023/07/07 04:46:14;;;;;;;50.08;45.78;;;14.60;99.90;;;;;;5030376;28;20045;-56
2023/07/07 04:48:40;;;;;;;51.22;47.00;;;14.80;99.90;;;;;;5033159;28;20487;-57
2023/07/07 04:51:08;;;;;;;50.65;46.35;;;14.90;99.90;;;;;;5033492;28;20079;-56
2023/07/07 04:53:36;;;;;;;48.78;44.38;;;14.90;1.00;;;;;;5033122;28;20049;-56
2023/07/07 04:56:06;;;;;;;46.58;42.45;;;14.90;1.00;;;;;;5033082;28;20049;-56
2023/07/07 04:58:32;;;;;;;48.97;44.72;;;15.00;3.80;;;;;;5033014;28;20046;-56
2023/07/07 05:01:10;;;;;;;49.97;45.47;;;15.10;93.60;;;;;;5033597;28;20040;-56
2023/07/07 05:03:37;;;;;;;50.30;45.63;;;15.30;99.90;;;;;;5033123;28;20045;-56
2023/07/07 05:06:03;;;;;;;51.60;46.83;;;15.20;99.90;;;;;;5033216;28;20563;-57
2023/07/07 05:08:34;;;;;;;50.58;46.17;;;15.60;99.90;;;;;;5032988;28;20111;-57
2023/07/07 05:11:00;;;;;;;50.17;45.80;;;15.50;99.90;;;;;;5025487;28;20057;-56
2023/07/07 05:13:26;;;;;;;51.03;46.33;;;15.70;99.90;;;;;;5022503;28;20049;-57
2023/07/07 05:16:03;;;;;;;50.90;45.90;;;15.60;99.90;;;;;;5033102;28;20037;-56
2023/07/07 05:18:29;;;;;;;49.40;45.05;;;15.80;99.90;;;;;;5032876;28;20518;-56
2023/07/07 05:20:54;;;;;;;51.10;46.30;;;16.10;99.90;;;;;;5032476;28;20042;-56
2023/07/07 05:23:20;;;;;;;50.88;46.22;;;16.00;99.90;;;;;;5032662;28;20053;-57
2023/07/07 05:25:46;;;;;;;53.47;48.58;;;16.30;99.90;;;;;;5032527;28;20037;-56
2023/07/07 05:28:11;;;;;;;52.03;46.95;;;16.80;99.90;;;;;;5032537;28;20125;-56
2023/07/07 05:30:40;;;;;;;51.85;47.25;;;16.60;99.90;;;;;;5032886;28;20042;-56
2023/07/07 05:33:05;;;;;;;48.22;44.15;;;17.00;99.90;;;;;;5032544;28;20049;-56
2023/07/07 05:35:31;;;;;;;51.63;47.00;;;16.70;99.90;;;;;;5032554;28;20049;-57
2023/07/07 05:37:56;;;;;;;51.28;46.63;;;16.90;99.90;;;;;;5032397;28;20039;-57
2023/07/07 05:40:22;;;;;;;51.20;46.53;;;16.90;99.90;;;;;;5032432;28;20046;-57
2023/07/07 05:42:48;;;;;;;49.05;44.67;;;17.20;99.90;;;;;;5031140;28;20499;-57
2023/07/07 05:45:14;;;;;;;48.13;43.20;;;17.00;99.90;;;;;;5032867;28;20045;-56
2023/07/07 05:47:39;;;;;;;48.22;43.40;;;17.00;99.90;;;;;;5032441;28;20053;-56
2023/07/07 05:50:05;;;;;;;48.20;43.53;;;17.20;99.90;;;;;;5032461;28;20045;-57
2023/07/07 05:52:31;;;;;;;48.55;44.35;;;17.60;99.90;;;;;;5032377;28;20037;-56
2023/07/07 05:54:57;;;;;;;46.08;41.72;;;17.60;99.90;;;;;;5031761;28;20459;-57
2023/07/07 05:57:23;;;;;;;43.40;39.70;;;17.60;99.90;;;;;;5031440;28;20466;-57
2023/07/07 05:59:49;;;;;;;42.85;39.13;;;17.80;99.90;;;;;;5031581;28;20128;-57
2023/07/07 06:02:14;;;;;;;45.00;40.88;;;17.90;99.90;;;;;;5032229;28;20515;-57
2023/07/07 06:04:40;;;;;;;43.72;39.72;;;17.90;99.90;;;;;;5032009;28;20476;-57
2023/07/07 06:07:06;;;;;;;44.95;40.80;;;18.20;99.90;;;;;;5031941;28;20034;-57
2023/07/07 06:09:31;;;;;;;43.30;39.38;;;18.20;99.90;;;;;;5030870;28;20541;-57
2023/07/07 06:11:57;;;;;;;41.45;37.65;;;18.40;99.90;;;;;;5026862;28;20041;-57
2023/07/07 06:14:23;;;;;;;39.40;35.80;;;18.20;99.90;;;;;;5032279;28;20068;-57
2023/07/07 06:16:48;;;;;;;40.78;36.78;;;18.40;99.90;;;;;;5032154;28;20124;-57
2023/07/07 06:19:14;;;;;;;41.08;37.42;;;18.50;99.90;;;;;;5031572;28;20045;-57
2023/07/07 06:21:39;;;;;;;39.35;35.85;;;18.80;99.90;;;;;;5031751;28;20620;-57
2023/07/07 06:24:05;;;;;;;39.47;35.88;;;18.70;99.90;;;;;;5031242;28;20052;-57
2023/07/07 06:26:30;;;;;;;39.38;35.10;;;19.00;99.90;;;;;;5031330;28;20042;-58
2023/07/07 06:28:56;;;;;;;36.03;33.00;;;19.00;99.90;;;;;;5031434;28;20041;-58
2023/07/07 06:31:22;;;;;;;37.30;34.13;;;19.20;99.90;;;;;;5031499;28;20037;-58
2023/07/07 06:33:48;;;;;;;36.45;33.08;;;19.30;99.90;;;;;;5031319;28;20048;-58
2023/07/07 06:36:14;;;;;;;33.90;31.08;;;19.50;99.90;;;;;;5031286;28;20056;-58
2023/07/07 06:38:40;;;;;;;34.72;31.85;;;19.50;99.90;;;;;;5031089;28;20033;-58
2023/07/07 06:41:10;;;;;;;32.47;29.67;;;19.60;99.90;;;;;;5045601;28;20514;-58
2023/07/07 06:43:35;;;;;;;34.97;31.98;;;19.80;99.00;;;;;;5029021;28;20052;-58
2023/07/07 06:46:01;;;;;;;28.83;26.40;;;20.00;99.90;;;;;;5031398;28;20262;-58
2023/07/07 06:48:27;;;;;;;30.85;28.17;;;19.90;1.00;;;;;;5027721;28;20113;-60
2023/07/07 06:50:52;;;;;;;28.52;26.15;;;20.30;99.90;;;;;;5024736;28;20073;-59
2023/07/07 06:53:18;;;;;;;26.95;24.75;;;20.40;99.90;;;;;;5030949;28;20045;-58
2023/07/07 06:55:44;;;;;;;28.23;25.73;;;20.70;99.90;;;;;;5030812;28;20404;-59
2023/07/07 06:58:13;;;;;;;29.80;27.10;;;20.80;1.00;;;;;;5030913;28;20052;-59
2023/07/07 07:00:41;;;;;;;23.20;21.20;;;21.10;99.90;;;;;;5031235;28;20042;-59
2023/07/07 07:03:06;;;;;;;23.90;21.67;;;21.20;99.90;;;;;;5030898;28;20046;-59
2023/07/07 07:05:32;;;;;;;23.88;21.75;;;21.50;99.90;;;;;;5039392;28;20496;-59
2023/07/07 07:07:58;;;;;;;23.50;21.23;;;21.70;99.90;;;;;;5028735;28;20064;-59
2023/07/07 07:10:23;;;;;;;22.77;20.77;;;21.80;82.20;;;;;;5024326;28;20120;-59
2023/07/07 07:12:49;;;;;;;23.23;21.23;;;22.10;1.00;;;;;;5030893;28;20103;-59
2023/07/07 07:15:14;;;;;;;23.30;21.30;;;22.20;99.90;;;;;;5062564;28;20468;-59
2023/07/07 07:17:40;;;;;;;20.77;18.75;;;22.40;1.00;;;;;;5036552;28;20037;-59
2023/07/07 07:20:07;;;;;;;18.17;16.52;;;22.70;99.90;;;;;;5030393;28;20053;-59
2023/07/07 07:22:32;;;;;;;22.27;20.27;;;22.80;99.90;;;;;;5030484;28;20431;-59
2023/07/07 07:24:58;;;;;;;24.27;21.90;;;23.00;81.40;;;;;;5030103;28;20051;-59
2023/07/07 07:27:23;;;;;;;21.50;19.40;;;23.20;14.70;;;;;;5030093;28;20500;-59
2023/07/07 07:29:51;;;;;;;18.90;17.20;;;23.50;1.00;;;;;;5030217;28;20037;-59
2023/07/07 07:32:17;;;;;;;20.75;18.92;;;23.60;99.90;;;;;;5025494;28;20503;-59
2023/07/07 07:34:43;;;;;;;19.63;17.83;;;23.70;99.90;;;;;;5028868;28;20037;-59
2023/07/07 07:37:09;;;;;;;18.88;16.98;;;23.90;99.90;;;;;;5030108;28;20053;-59
2023/07/07 07:39:35;;;;;;;15.70;14.35;;;24.10;84.90;;;;;;5061741;28;20038;-59
2023/07/07 07:42:01;;;;;;;13.02;11.93;;;24.10;1.00;;;;;;5028980;28;20133;-59
2023/07/07 07:44:27;;;;;;;12.00;10.77;;;24.30;1.00;;;;;;5030074;28;20055;-59
2023/07/07 07:46:55;;;;;;;13.38;11.50;;;24.40;1.00;;;;;;5028633;28;20124;-60
2023/07/07 07:49:21;;;;;;;14.13;12.73;;;24.60;99.90;;;;;;5030084;28;20037;-59
2023/07/07 07:51:47;;;;;;;12.95;11.75;;;24.90;99.90;;;;;;5036263;28;20041;-59
2023/07/07 07:54:13;;;;;;;12.95;10.15;;;24.80;99.90;;;;;;5030785;28;20040;-60
2023/07/07 07:56:40;;;;;;;16.00;10.60;;;25.00;99.90;;;;;;5034561;28;20073;-60
2023/07/07 07:59:06;;;;;;;13.88;10.77;;;25.40;99.90;;;;;;5043981;28;20041;-59
2023/07/07 08:01:32;;;;;;;9.30;8.32;;;25.40;99.90;;;;;;5034136;28;20029;-60
2023/07/07 08:03:58;;;;;;;13.85;12.75;;;25.40;99.90;;;;;;5030920;28;20033;-60
2023/07/07 08:06:24;;;;;;;15.75;14.35;;;25.50;99.90;;;;;;5029876;28;20037;-59
2023/07/07 08:08:49;;;;;;;15.48;14.00;;;25.60;99.90;;;;;;5029598;28;20038;-59
2023/07/07 08:11:18;;;;;;;19.13;17.23;;;25.70;99.90;;;;;;5023816;28;20041;-59
2023/07/07 08:13:44;;;;;;;18.58;17.08;;;25.90;99.90;;;;;;5028364;28;20099;-59
2023/07/07 08:16:11;;;;;;;17.40;15.80;;;26.00;99.90;;;;;;5029995;28;20041;-59
2023/07/07 08:18:40;;;;;;;20.27;18.50;;;26.20;91.40;;;;;;5029562;28;20495;-59
2023/07/07 08:21:07;;;;;;;31.17;28.80;;;26.30;66.90;;;;;;5030410;28;20033;-59
2023/07/07 08:23:32;;;;;;;39.35;36.55;;;26.30;22.90;;;;;;5033787;28;20546;-60
2023/07/07 08:25:59;;;;;;;21.25;19.70;;;26.40;11.40;;;;;;5033731;28;20073;-60
2023/07/07 08:28:25;;;;;;;16.85;15.55;;;26.90;6.00;;;;;;5034031;28;20044;-59
2023/07/07 08:30:50;;;;;;;18.50;17.13;;;26.70;2.70;;;;;;5049184;28;20041;-60
2023/07/07 08:33:17;;;;;;;15.43;14.13;;;26.80;1.00;;;;;;5033745;28;20044;-59
2023/07/07 08:35:43;;;;;;;7.43;4.65;;;26.80;1.00;;;;;;5032886;28;20041;-59
2023/07/07 08:38:08;;;;;;;5.95;3.97;;;26.80;1.00;;;;;;5033405;28;20123;-59
2023/07/07 08:40:46;;;;;;;4.30;3.58;;;26.90;1.00;;;;;;5029245;28;20045;-60
2023/07/07 08:43:12;;;;;;;8.23;3.30;;;26.90;1.00;;;;;;5033413;28;20061;-60
2023/07/07 08:45:43;;;;;;;7.88;3.10;;;27.00;1.00;;;;;;5033316;28;20036;-60
2023/07/07 08:48:24;;;;;;;9.25;3.50;;;27.10;1.00;;;;;;5034038;28;20387;-59
2023/07/07 08:50:55;;;;;;;4.45;3.13;;;27.20;1.00;;;;;;5033473;28;20107;-60
2023/07/07 08:53:45;;;;;;;5.55;3.38;;;27.40;1.00;;;;;;5033766;28;20430;-60
2023/07/07 08:56:36;;;;;;;6.60;3.20;;;27.60;1.00;;;;;;5048892;28;20121;-60
2023/07/07 08:59:33;;;;;;;11.18;3.25;;;27.70;1.00;;;;;;5013933;28;20062;-60
2023/07/07 09:02:22;;;;;;;6.05;3.03;;;27.80;1.00;;;;;;5033377;28;20491;-60
2023/07/07 09:04:55;;;;;;;8.70;2.88;;;27.80;1.00;;;;;;5033041;28;20029;-60
2023/07/07 09:07:52;;;;;;;9.02;3.08;;;27.90;1.00;;;;;;5032708;28;20076;-60
2023/07/07 09:10:32;;;;;;;7.90;3.00;;;28.10;1.00;;;;;;5031716;28;20041;-59
2023/07/07 09:13:03;;;;;;;8.10;3.10;;;28.20;1.00;;;;;;5012716;28;20140;-60
2023/07/07 09:15:33;;;;;;;5.22;2.97;;;28.00;1.00;;;;;;5023676;28;20826;-59
2023/07/07 09:18:06;;;;;;;6.85;3.40;;;28.20;1.00;;;;;;5033138;28;20037;-60
2023/07/07 09:20:34;;;;;;;5.38;3.00;;;28.20;1.00;;;;;;5030293;28;20562;-60
2023/07/07 09:23:08;;;;;;;7.15;3.20;;;28.10;1.00;;;;;;5025903;28;20037;-59
2023/07/07 09:25:42;;;;;;;6.28;2.88;;;28.20;1.00;;;;;;5032494;28;20041;-60
2023/07/07 09:28:12;;;;;;;8.35;2.90;;;28.10;1.00;;;;;;5032773;28;20037;-60
2023/07/07 09:30:46;;;;;;;6.00;2.97;;;28.10;1.00;;;;;;5032937;28;20080;-60
2023/07/07 09:33:21;;;;;;;5.38;2.90;;;28.20;1.00;;;;;;5031328;28;20050;-59
2023/07/07 09:36:07;;;;;;;4.32;3.00;;;28.30;1.00;;;;;;5032657;28;20068;-60
2023/07/07 09:38:56;;;;;;;4.35;2.80;;;28.20;1.00;;;;;;5032292;28;20515;-60
2023/07/07 09:41:36;;;;;;;6.55;3.08;;;28.40;1.00;;;;;;5040200;28;20106;-59
2023/07/07 09:44:19;;;;;;;6.47;3.08;;;28.50;1.00;;;;;;5052257;28;20480;-60
2023/07/07 09:47:05;;;;;;;4.82;2.80;;;28.50;1.00;;;;;;5032284;28;20037;-60
2023/07/07 09:49:48;;;;;;;7.22;2.83;;;28.40;1.00;;;;;;5030860;28;20076;-60
2023/07/07 09:52:36;;;;;;;4.63;2.65;;;28.40;99.90;;;;;;5018093;28;20053;-60
2023/07/07 09:55:09;;;;;;;5.50;2.90;;;28.50;99.90;;;;;;5025091;28;20554;-60
2023/07/07 09:57:41;;;;;;;4.20;2.72;;;28.50;99.90;;;;;;5032224;28;20061;-60
2023/07/07 10:00:15;;;;;;;5.28;2.78;;;28.60;99.90;;;;;;5028170;28;20046;-60
2023/07/07 10:02:42;;;;;;;5.68;2.88;;;28.30;99.90;;;;;;5012506;28;20417;-59
2023/07/07 10:05:10;;;;;;;3.97;2.92;;;28.10;99.90;;;;;;5023407;28;20052;-60
2023/07/07 10:07:39;;;;;;;3.83;2.78;;;28.00;99.90;;;;;;5031110;28;20077;-60
2023/07/07 10:10:07;;;;;;;6.53;2.85;;;27.90;99.90;;;;;;5031578;28;20045;-60
2023/07/07 10:12:33;;;;;;;3.72;2.53;;;27.90;99.90;;;;;;5016907;28;20042;-59
2023/07/07 10:14:59;;;;;;;5.65;3.00;;;27.80;99.90;;;;;;5031896;28;20067;-60
2023/07/07 10:17:39;;;;;;;4.40;3.03;;;27.70;99.90;;;;;;5031890;28;20563;-60
2023/07/07 10:20:05;;;;;;;5.65;2.97;;;27.80;99.90;;;;;;5031595;28;20048;-59
2023/07/07 10:22:34;;;;;;;4.97;2.65;;;27.90;99.90;;;;;;5030197;28;20041;-60
2023/07/07 10:25:02;;;;;;;3.78;2.83;;;27.80;99.90;;;;;;5024913;28;20396;-60
2023/07/07 10:27:28;;;;;;;4.80;3.03;;;27.80;99.90;;;;;;5015669;28;20037;-60
2023/07/07 10:30:03;;;;;;;3.25;2.65;;;27.90;99.90;;;;;;5015870;28;20095;-59
2023/07/07 10:32:29;;;;;;;5.47;3.15;;;27.90;99.90;;;;;;5029227;28;20057;-60
2023/07/07 10:34:58;;;;;;;7.75;3.10;;;28.00;99.90;;;;;;5031235;28;20037;-59
2023/07/07 10:37:29;;;;;;;6.07;3.30;;;27.90;99.90;;;;;;5029830;28;20460;-59
2023/07/07 10:39:58;;;;;;;4.55;2.70;;;28.00;99.90;;;;;;5031257;28;20030;-59
2023/07/07 10:42:26;;;;;;;3.80;2.83;;;27.90;99.90;;;;;;5030957;28;20412;-59
2023/07/07 10:44:53;;;;;;;5.45;2.80;;;27.90;99.90;;;;;;5032577;28;20120;-59
2023/07/07 10:47:26;;;;;;;5.75;3.03;;;28.00;99.90;;;;;;5023714;28;20495;-59
2023/07/07 10:49:52;;;;;;;5.68;2.90;;;28.10;99.90;;;;;;5030706;28;20053;-59
2023/07/07 10:52:46;;;;;;;4.65;2.90;;;28.20;99.90;;;;;;5020903;28;20403;-59
2023/07/07 10:55:17;;;;;;;4.35;2.85;;;28.20;99.90;;;;;;5028594;28;20092;-59
2023/07/07 10:58:06;;;;;;;5.95;3.17;;;28.10;99.90;;;;;;5030892;28;20034;-59
2023/07/07 11:00:55;;;;;;;4.25;2.75;;;27.90;99.90;;;;;;5030724;28;20323;-59
2023/07/07 11:03:57;;;;;;;4.90;2.92;;;27.80;99.90;;;;;;5030598;28;20049;-59
2023/07/07 11:06:39;;;;;;;5.90;3.10;;;27.80;99.90;;;;;;5031897;28;20406;-59
2023/07/07 11:09:16;;;;;;;5.80;3.10;;;27.80;99.90;;;;;;5050944;28;20503;-59
2023/07/07 11:12:15;;;;;;;4.00;2.83;;;27.60;99.90;;;;;;5017282;28;20488;-59
2023/07/07 11:15:05;;;;;;;4.88;3.05;;;27.50;99.90;;;;;;5010866;28;20038;-59
2023/07/07 11:17:52;;;;;;;5.65;3.13;;;27.50;99.90;;;;;;5054014;28;20077;-59
2023/07/07 11:20:43;;;;;;;4.30;2.80;;;27.50;99.90;;;;;;5015391;28;20045;-59
2023/07/07 11:23:30;;;;;;;5.90;2.90;;;27.50;99.90;;;;;;5014896;28;20042;-59
2023/07/07 11:26:15;;;;;;;8.10;3.10;;;27.40;99.90;;;;;;5020397;28;20048;-59
2023/07/07 11:29:06;;;;;;;5.90;3.03;;;27.50;99.90;;;;;;5027686;28;20037;-59
2023/07/07 11:31:58;;;;;;;4.63;3.13;;;27.60;99.90;;;;;;5045590;28;20111;-59
2023/07/07 11:34:54;;;;;;;7.25;3.17;;;27.50;99.90;;;;;;5030435;28;20038;-58
2023/07/07 11:37:54;;;;;;;8.27;3.10;;;27.60;99.90;;;;;;5010538;28;20041;-59
2023/07/07 11:40:31;;;;;;;5.55;3.00;;;27.60;99.90;;;;;;5013995;28;20045;-59
2023/07/07 11:43:25;;;;;;;6.15;3.03;;;27.60;99.90;;;;;;5029876;28;20135;-59
2023/07/07 11:46:09;;;;;;;5.10;3.20;;;27.70;99.90;;;;;;5028421;28;20064;-59
2023/07/07 11:48:45;;;;;;;5.63;3.20;;;27.80;99.90;;;;;;5043132;28;20037;-59
2023/07/07 11:51:43;;;;;;;;;;;27.80;99.90;;;;;;5030642;28;20453;-59
2023/07/07 11:54:27;;;;;;;7.55;3.20;;;27.80;99.90;;;;;;5027998;28;19925;-59
2023/07/07 11:57:06;;;;;;;5.53;2.85;;;27.80;99.90;;;;;;5029126;28;20046;-59
2023/07/07 11:59:38;;;;;;;6.40;2.97;;;27.60;99.90;;;;;;5030217;28;20042;-59
2023/07/07 12:02:14;;;;;;;5.60;3.28;;;27.40;99.90;;;;;;5029981;28;20045;-59
2023/07/07 12:04:43;;;;;;;6.82;3.30;;;27.40;99.90;;;;;;5014024;28;20048;-59
2023/07/07 12:07:35;;;;;;;6.90;3.42;;;27.50;99.90;;;;;;5030937;28;20041;-59
2023/07/07 12:10:30;;;;;;;4.22;3.00;;;27.60;99.90;;;;;;5025459;28;20049;-59
2023/07/07 12:13:13;;;;;;;5.25;3.17;;;27.60;99.90;;;;;;5010214;28;20136;-59
2023/07/07 12:15:47;;;;;;;10.35;3.13;;;27.60;99.90;;;;;;5018504;28;20044;-59
2023/07/07 12:18:28;;;;;;;6.00;3.17;;;27.50;99.90;;;;;;5030270;28;20041;-60
2023/07/07 12:21:10;;;;;;;6.43;2.83;;;27.50;99.90;;;;;;5029463;28;20041;-59
2023/07/07 12:23:38;;;;;;;6.20;2.83;;;27.60;99.90;;;;;;5029799;28;20080;-59
2023/07/07 12:26:30;;;;;;;6.78;3.03;;;27.60;99.90;;;;;;5029570;28;20037;-59
2023/07/07 12:28:59;;;;;;;5.53;2.95;;;27.50;99.90;;;;;;5029933;28;20060;-59
2023/07/07 12:31:27;;;;;;;3.88;2.90;;;27.40;99.90;;;;;;5029766;28;20480;-59
2023/07/07 12:33:52;;;;;;;4.35;2.90;;;27.20;99.90;;;;;;5029706;28;20041;-59
2023/07/07 12:36:21;;;;;;;6.75;3.28;;;27.10;99.90;;;;;;5029328;28;20464;-59
2023/07/07 12:38:54;;;;;;;5.65;3.10;;;27.00;99.90;;;;;;5023203;28;20048;-59
2023/07/07 12:41:24;;;;;;;6.20;2.90;;;27.00;99.90;;;;;;5029828;28;20037;-59
2023/07/07 12:43:58;;;;;;;5.50;3.00;;;27.00;99.90;;;;;;5029729;28;20076;-59
2023/07/07 12:46:33;;;;;;;4.35;3.20;;;26.90;99.90;;;;;;5029794;28;20041;-58
2023/07/07 12:49:19;;;;;;;5.30;3.25;;;27.00;99.90;;;;;;5029594;28;20124;-59
2023/07/07 12:51:45;;;;;;;7.07;3.20;;;27.00;99.90;;;;;;5029661;28;20495;-59
2023/07/07 12:54:32;;;;;;;6.65;3.33;;;27.00;99.90;;;;;;5029439;28;20069;-59